Time;durP1;ratioP1;P1;durP2;ratioP2;P2;SDS_P1;SDS_P2;PMS_P1;PMS_P2;Temp;Humidity;BMP_temperature;BMP_pressure;BME280_temperature;BME280_humidity;BME280_pressure;Samples;Min_cycle;Max_cycle;Signal;HPM_P1;HPM_P2
2022/04/26 03:38:30;;;;;;;;;;;;;;;7.33;94.70;92834.63;5032073;28;20060;-84
2022/04/26 03:40:58;;;;;;;20.90;8.23;;;;;;;7.21;95.25;92837.00;5031451;28;20013;-84
2022/04/26 03:43:24;;;;;;;20.27;7.80;;;;;;;7.27;95.68;92843.84;5031276;28;20478;-84
2022/04/26 03:45:52;;;;;;;21.25;8.32;;;;;;;7.29;95.20;92841.91;5031117;28;20042;-86
2022/04/26 03:48:20;;;;;;;20.02;7.20;;;;;;;6.94;96.03;92789.28;5038497;28;20794;-84
2022/04/26 03:50:48;;;;;;;27.52;10.07;;;;;;;6.95;95.42;92792.63;5049157;28;20559;-85
2022/04/26 03:53:15;;;;;;;20.95;7.70;;;;;;;7.27;95.87;92837.97;5050893;28;20131;-84
2022/04/26 03:55:42;;;;;;;22.60;9.05;;;;;;;7.21;94.95;92822.47;5051376;28;20044;-84
2022/04/26 03:58:09;;;;;;;24.98;9.95;;;;;;;7.27;96.05;92815.75;5051545;28;20055;-83
2022/04/26 04:00:36;;;;;;;18.23;7.72;;;;;;;7.40;95.26;92839.75;5051142;28;20500;-84
2022/04/26 04:03:03;;;;;;;21.70;9.00;;;;;;;7.22;94.38;92802.78;5051059;28;20045;-84
2022/04/26 04:05:30;;;;;;;19.70;7.70;;;;;;;7.59;92.88;92861.16;5050912;28;20507;-84
2022/04/26 04:07:58;;;;;;;19.40;7.65;;;;;;;7.43;92.39;92829.91;5050757;28;20045;-84
2022/04/26 04:10:25;;;;;;;18.35;7.35;;;;;;;7.55;92.28;92854.84;5051010;28;20045;-84
2022/04/26 04:12:52;;;;;;;21.30;7.28;;;;;;;7.27;92.19;92815.00;5050484;28;20502;-84
2022/04/26 04:15:20;;;;;;;18.52;7.13;;;;;;;7.57;92.75;92874.13;5051057;28;20059;-84
2022/04/26 04:17:47;;;;;;;13.50;6.35;;;;;;;7.19;91.96;92810.88;5050609;28;20048;-84
2022/04/26 04:20:15;;;;;;;15.60;6.90;;;;;;;7.29;92.19;92823.22;5050450;28;20052;-84
2022/04/26 04:22:42;;;;;;;25.30;8.95;;;;;;;7.67;91.63;92883.13;5050410;28;20547;-84
2022/04/26 04:25:11;;;;;;;19.75;8.48;;;;;;;7.29;91.41;92829.13;5050732;28;20052;-84
2022/04/26 04:27:38;;;;;;;19.52;8.60;;;;;;;7.60;91.99;92862.72;5050310;28;20049;-84
2022/04/26 04:30:05;;;;;;;17.15;7.88;;;;;;;7.48;92.66;92836.97;5050768;28;20064;-84
2022/04/26 04:32:33;;;;;;;19.48;7.55;;;;;;;7.84;91.87;92883.50;5050255;28;20041;-84
2022/04/26 04:34:59;;;;;;;19.45;8.95;;;;;;;7.85;92.97;92877.38;5050789;28;20136;-84
2022/04/26 04:37:27;;;;;;;18.92;8.00;;;;;;;7.98;92.58;92886.81;5050540;28;20388;-85
2022/04/26 04:39:53;;;;;;;20.88;8.93;;;;;;;7.97;93.03;92875.78;5050328;28;20045;-84
2022/04/26 04:42:22;;;;;;;21.23;8.77;;;;;;;7.84;92.41;92832.34;5049489;28;20371;-84
2022/04/26 04:44:49;;;;;;;25.50;10.40;;;;;;;8.22;91.55;92852.09;5049048;28;20088;-84
2022/04/26 04:47:17;;;;;;;17.02;7.80;;;;;;;8.57;90.78;92886.00;5049211;28;20047;-84
2022/04/26 04:49:44;;;;;;;18.95;7.93;;;;;;;8.71;90.64;92891.84;5049299;28;20369;-84
2022/04/26 04:52:11;;;;;;;23.00;7.95;;;;;;;8.38;90.17;92820.09;5048944;28;20389;-84
2022/04/26 04:54:38;;;;;;;24.00;8.93;;;;;;;9.06;89.38;92884.53;5048119;28;20080;-84
2022/04/26 04:57:06;;;;;;;16.98;7.70;;;;;;;9.25;88.19;92883.81;5044349;28;20041;-83
2022/04/26 04:59:34;;;;;;;21.15;8.98;;;;;;;9.26;86.89;92868.22;5047588;28;20076;-84
2022/04/26 05:02:01;;;;;;;19.05;7.97;;;;;;;9.61;85.67;92898.50;5047460;28;20412;-84
2022/04/26 05:04:28;;;;;;;19.30;7.45;;;;;;;9.61;86.71;92872.06;5048561;28;20048;-84
2022/04/26 05:06:54;;;;;;;15.02;7.47;;;;;;;9.93;86.20;92899.38;5049377;28;20048;-84
2022/04/26 05:09:22;;;;;;;17.27;7.22;;;;;;;9.98;86.06;92899.53;5049605;28;20045;-84
2022/04/26 05:11:49;;;;;;;18.27;7.38;;;;;;;10.16;84.96;92885.94;5049372;28;20540;-85
2022/04/26 05:14:16;;;;;;;19.15;8.43;;;;;;;10.29;83.32;92879.88;5049137;28;20041;-83
2022/04/26 05:16:44;;;;;;;16.70;7.18;;;;;;;10.54;81.96;92879.78;5049382;28;20143;-82
2022/04/26 05:19:11;;;;;;;17.50;7.82;;;;;;;10.67;80.42;92867.75;5049278;28;20483;-83
2022/04/26 05:21:38;;;;;;;21.98;9.65;;;;;;;10.90;79.87;92871.41;5049567;28;20131;-82
2022/04/26 05:26:50;;;;;;;22.38;10.68;;;;;;;11.44;80.53;92896.31;5049482;28;20416;-83
2022/04/26 05:29:17;;;;;;;19.60;10.02;;;;;;;11.37;77.20;92868.13;5049338;28;20082;-82
2022/04/26 05:31:45;;;;;;;24.13;12.00;;;;;;;11.32;80.76;92875.72;5049536;28;20041;-82
2022/04/26 05:34:12;;;;;;;21.27;10.48;;;;;;;11.68;80.04;92902.25;5049433;28;20052;-82
2022/04/26 05:36:39;;;;;;;26.88;10.82;;;;;;;11.17;79.70;92835.03;5049328;28;20427;-83
2022/04/26 05:39:06;;;;;;;25.83;9.73;;;;;;;11.74;79.13;92887.69;5048951;28;20049;-82
2022/04/26 05:41:33;;;;;;;27.00;10.32;;;;;;;11.79;77.88;92885.25;5049021;28;21693;-82
2022/04/26 05:43:59;;;;;;;25.33;9.50;;;;;;;11.86;78.31;92901.34;5049092;28;20056;-82
2022/04/26 05:46:26;;;;;;;25.27;9.60;;;;;;;12.14;76.81;92887.00;5049456;28;20048;-82
2022/04/26 05:48:54;;;;;;;24.20;9.98;;;;;;;12.64;73.38;92905.47;5049072;28;20037;-83
2022/04/26 05:51:22;;;;;;;24.67;9.27;;;;;;;12.71;72.62;92853.81;5049399;28;20040;-84
2022/04/26 05:53:49;;;;;;;25.88;9.75;;;;;;;13.08;71.98;92888.69;5049624;28;20045;-84
2022/04/26 05:56:16;;;;;;;25.35;10.55;;;;;;;13.38;69.84;92864.41;5052701;28;20045;-84
2022/04/26 05:58:43;;;;;;;27.67;10.13;;;;;;;13.92;67.61;92893.34;5053428;28;20468;-83
2022/04/26 06:01:10;;;;;;;24.58;8.25;;;;;;;14.40;65.06;92894.44;5053010;28;20045;-84
2022/04/26 06:03:37;;;;;;;21.90;8.93;;;;;;;14.74;63.32;92867.66;5052616;28;20041;-83
2022/04/26 06:06:06;;;;;;;27.45;9.07;;;;;;;15.06;61.12;92858.41;5052618;28;20147;-83
2022/04/26 06:08:33;;;;;;;29.10;10.25;;;;;;;15.73;59.43;92878.81;5052771;28;20068;-84
2022/04/26 06:10:59;;;;;;;27.65;9.25;;;;;;;15.92;58.33;92866.22;5050245;28;20080;-84
2022/04/26 06:13:26;;;;;;;21.80;7.97;;;;;;;15.80;57.99;92861.25;5052687;28;20041;-84
2022/04/26 06:15:53;;;;;;;22.67;8.25;;;;;;;15.99;57.09;92824.59;5052195;28;20041;-85
2022/04/26 06:18:20;;;;;;;26.27;7.85;;;;;;;16.60;56.46;92851.75;5052373;28;20133;-85
2022/04/26 06:20:47;;;;;;;18.75;7.28;;;;;;;17.05;54.35;92862.50;5052802;28;20041;-85
2022/04/26 06:23:15;;;;;;;25.05;6.97;;;;;;;16.44;55.15;92863.91;5052405;28;20752;-84
2022/04/26 06:25:42;;;;;;;21.33;6.57;;;;;;;15.84;55.52;92807.91;5052490;28;20045;-84
2022/04/26 06:28:09;;;;;;;19.10;6.13;;;;;;;16.65;54.76;92858.75;5052665;28;20041;-84
2022/04/26 06:30:38;;;;;;;20.92;6.95;;;;;;;17.07;53.63;92867.41;5052965;28;20387;-84
2022/04/26 06:33:05;;;;;;;16.25;5.68;;;;;;;16.95;54.45;92800.19;5052576;28;20056;-84
2022/04/26 06:35:32;;;;;;;14.35;3.85;;;;;;;17.79;52.44;92834.66;5052102;28;20064;-84
2022/04/26 06:37:59;;;;;;;14.20;4.80;;;;;;;18.09;50.26;92814.88;5052148;28;20040;-86
2022/04/26 06:40:27;;;;;;;10.75;3.53;;;;;;;18.86;49.44;92857.13;5052413;28;20044;-84
2022/04/26 06:42:54;;;;;;;7.72;2.22;;;;;;;19.09;45.79;92847.91;5051880;28;20049;-83
2022/04/26 06:45:21;;;;;;;10.52;2.55;;;;;;;19.18;46.73;92814.25;5049427;28;20043;-86
2022/04/26 06:47:49;;;;;;;5.57;2.63;;;;;;;19.62;45.46;92823.75;5054840;28;20373;-85
2022/04/26 06:50:17;;;;;;;8.00;2.78;;;;;;;19.69;42.68;92833.84;5051941;28;20476;-85
2022/04/26 06:52:44;;;;;;;6.20;2.30;;;;;;;20.17;44.69;92850.59;5051794;28;20045;-86
2022/04/26 06:55:11;;;;;;;5.97;2.50;;;;;;;20.35;44.90;92845.69;5052028;28;20613;-85
2022/04/26 06:57:40;;;;;;;8.10;2.30;;;;;;;20.69;42.08;92842.16;5051945;28;20152;-86
2022/04/26 07:00:10;;;;;;;7.05;2.53;;;;;;;20.66;41.84;92845.31;5051629;28;20048;-85
2022/04/26 07:02:37;;;;;;;7.65;2.95;;;;;;;20.65;43.20;92784.50;5052003;28;20091;-86
2022/04/26 07:05:06;;;;;;;5.88;2.00;;;;;;;21.09;41.03;92820.97;5051549;28;20164;-84
2022/04/26 07:07:33;;;;;;;9.05;3.50;;;;;;;21.46;41.47;92835.03;5051530;28;20044;-85
2022/04/26 07:10:00;;;;;;;6.90;2.75;;;;;;;21.09;40.23;92805.31;5048916;28;20376;-85
2022/04/26 07:12:27;;;;;;;5.47;2.38;;;;;;;19.48;43.46;92828.84;5051698;28;20047;-85
2022/04/26 07:14:55;;;;;;;7.78;2.50;;;;;;;20.29;43.91;92827.47;5051467;28;20045;-85
2022/04/26 07:17:22;;;;;;;3.88;1.55;;;;;;;20.48;41.53;92829.38;5049086;28;20069;-84
2022/04/26 07:19:49;;;;;;;4.15;1.73;;;;;;;20.52;41.08;92824.34;5051629;28;20080;-85
2022/04/26 07:22:16;;;;;;;9.98;1.75;;;;;;;20.47;42.47;92847.91;5051544;28;20045;-84
2022/04/26 07:24:43;;;;;;;3.53;1.83;;;;;;;20.05;41.73;92819.72;5051467;28;20048;-85
2022/04/26 07:27:11;;;;;;;4.60;1.48;;;;;;;20.32;42.27;92799.31;5051470;28;20045;-84
2022/04/26 07:29:41;;;;;;;4.43;1.98;;;;;;;20.58;43.34;92833.66;5051357;28;20049;-86
2022/04/26 07:32:09;;;;;;;5.40;1.75;;;;;;;21.11;43.06;92836.34;5051125;28;20075;-86
2022/04/26 07:34:36;;;;;;;3.97;1.83;;;;;;;21.44;41.17;92834.50;5051286;28;20045;-86
2022/04/26 07:37:04;;;;;;;4.53;1.40;;;;;;;21.81;40.45;92819.03;5050826;28;20396;-86
2022/04/26 07:39:33;;;;;;;4.72;1.52;;;;;;;22.24;39.92;92835.50;5051254;28;20165;-86
2022/04/26 07:42:02;;;;;;;4.70;1.13;;;;;;;22.66;39.16;92830.22;5051507;28;20059;-86
2022/04/26 07:44:30;;;;;;;4.38;1.60;;;;;;;22.73;38.89;92820.13;5051012;28;20435;-86
2022/04/26 07:46:57;;;;;;;4.57;1.20;;;;;;;23.02;37.56;92836.53;5047289;28;20045;-86
2022/04/26 07:49:26;;;;;;;3.90;2.13;;;;;;;22.91;38.30;92807.19;5050017;28;20132;-86
2022/04/26 07:51:54;;;;;;;4.07;1.58;;;;;;;23.37;36.60;92828.16;5051438;28;20080;-85
2022/04/26 07:54:21;;;;;;;5.15;1.98;;;;;;;23.13;36.06;92835.22;5051341;28;20135;-86
2022/04/26 07:56:48;;;;;;;5.53;1.35;;;;;;;23.18;36.10;92832.47;5051127;28;20049;-86
2022/04/26 07:59:15;;;;;;;2.70;1.05;;;;;;;23.11;36.17;92778.97;5051150;28;20049;-86
2022/04/26 08:01:42;;;;;;;2.15;0.80;;;;;;;23.21;36.42;92807.53;5051265;28;20048;-85
2022/04/26 08:04:09;;;;;;;4.43;1.40;;;;;;;21.58;38.20;92769.22;5051171;28;20049;-86
2022/04/26 08:06:38;;;;;;;2.50;0.60;;;;;;;21.40;38.90;92749.16;5050883;28;20045;-85
2022/04/26 08:09:05;;;;;;;3.40;0.80;;;;;;;21.98;38.60;92825.53;5051076;28;20049;-85
2022/04/26 08:11:35;;;;;;;1.85;0.73;;;;;;;21.92;40.60;92777.78;5050690;28;20052;-87
2022/04/26 08:14:04;;;;;;;2.30;0.88;;;;;;;22.41;39.94;92832.28;5050865;28;20045;-87
2022/04/26 08:16:34;;;;;;;2.38;0.85;;;;;;;22.47;37.20;92789.25;5050671;28;20048;-88
2022/04/26 08:19:01;;;;;;;3.17;1.08;;;;;;;21.17;37.79;92783.00;5050078;28;20067;-87
2022/04/26 08:21:28;;;;;;;1.63;0.68;;;;;;;21.16;39.41;92820.63;5050698;28;20045;-86
2022/04/26 08:29:27;;;;;;;2.60;0.73;;;;;;;21.88;38.55;92832.50;5032677;28;20053;-82
2022/04/26 08:31:55;;;;;;;2.00;1.05;;;;;;;21.27;38.64;92834.28;5050158;28;20045;-83
2022/04/26 08:34:22;;;;;;;2.20;0.70;;;;;;;21.06;40.37;92793.59;5050397;28;20534;-82
2022/04/26 08:36:49;;;;;;;3.47;0.73;;;;;;;21.00;41.75;92830.50;5050207;28;20078;-82
2022/04/26 08:39:17;;;;;;;2.90;1.10;;;;;;;20.87;42.59;92814.50;5050396;28;20044;-83
2022/04/26 08:41:44;;;;;;;3.05;0.95;;;;;;;21.30;40.96;92831.09;5050520;28;20396;-82
2022/04/26 08:44:11;;;;;;;3.28;1.10;;;;;;;21.61;41.44;92814.91;5049976;28;20055;-83
2022/04/26 08:52:09;;;;;;;2.43;0.80;;;;;;;21.64;39.04;92782.97;5050116;28;19982;-86
2022/04/26 08:54:37;;;;;;;1.08;0.63;;;;;;;21.83;38.56;92829.19;5050426;28;20053;-87
2022/04/26 08:57:04;;;;;;;4.72;2.38;;;;;;;21.16;40.36;92818.75;5050165;28;20072;-87
2022/04/26 08:59:31;;;;;;;3.72;1.13;;;;;;;21.62;40.34;92785.09;5050152;28;20045;-87
2022/04/26 09:02:18;;;;;;;2.78;0.90;;;;;;;21.79;40.28;92774.09;5050225;28;20045;-86
2022/04/26 09:04:45;;;;;;;1.33;0.52;;;;;;;22.55;37.44;92827.06;5049979;28;20045;-87
2022/04/26 09:07:15;;;;;;;4.22;1.00;;;;;;;21.33;38.00;92776.44;5050014;28;20505;-87
2022/04/26 09:09:43;;;;;;;3.00;1.13;;;;;;;21.86;38.40;92811.06;5050120;28;20083;-88
2022/04/26 09:12:11;;;;;;;2.72;1.00;;;;;;;21.58;39.53;92823.34;5050313;28;20044;-87
2022/04/26 09:14:47;;;;;;;1.45;0.80;;;;;;;21.76;39.43;92798.22;5049708;28;20499;-87
2022/04/26 09:17:17;;;;;;;2.03;0.68;;;;;;;22.05;39.43;92822.53;5049916;28;20060;-88
2022/04/26 09:19:48;;;;;;;3.22;1.00;;;;;;;21.88;38.33;92774.97;5049871;28;20045;-88
2022/04/26 09:22:20;;;;;;;3.47;0.90;;;;;;;21.48;38.55;92769.41;5051583;28;20048;-89
2022/04/26 09:24:59;;;;;;;6.40;1.70;;;;;;;22.23;38.16;92810.41;5058720;28;20048;-87
2022/04/26 09:27:27;;;;;;;4.05;0.80;;;;;;;22.29;36.63;92777.84;5050460;28;20568;-87
2022/04/26 09:29:54;;;;;;;3.38;1.25;;;;;;;22.75;37.08;92770.09;5049497;28;20052;-87
2022/04/26 09:32:24;;;;;;;2.22;1.05;;;;;;;23.02;38.15;92805.88;5046854;28;20069;-88
2022/04/26 09:34:52;;;;;;;2.00;1.17;;;;;;;21.96;38.74;92755.22;5047291;28;21222;-88
2022/04/26 09:37:20;;;;;;;2.20;0.70;;;;;;;22.82;37.14;92809.75;5049103;28;20041;-89
2022/04/26 09:40:09;;;;;;;4.90;1.02;;;;;;;22.03;39.86;92763.44;5049398;28;20087;-89
2022/04/26 09:42:39;;;;;;;2.13;0.85;;;;;;;21.60;38.30;92763.69;5049874;28;20503;-90
2022/04/26 09:45:16;;;;;;;3.05;1.10;;;;;;;22.03;38.45;92796.66;5049305;28;20484;-89
2022/04/26 09:47:45;;;;;;;4.32;1.33;;;;;;;22.66;38.94;92812.69;5049127;28;20051;-88
2022/04/26 09:50:14;;;;;;;2.55;1.20;;;;;;;23.30;38.56;92791.88;5049603;28;20695;-90
2022/04/26 09:52:42;;;;;;;8.65;1.33;;;;;;;23.69;37.82;92784.38;5049728;28;20045;-88
2022/04/26 09:55:16;;;;;;;2.03;1.00;;;;;;;23.95;36.19;92783.69;5049222;28;20472;-89
2022/04/26 09:57:47;;;;;;;4.53;1.10;;;;;;;24.12;34.22;92796.13;5049034;28;20519;-88
2022/04/26 10:00:15;;;;;;;3.65;1.27;;;;;;;23.47;35.20;92755.28;5049161;28;20053;-89
2022/04/26 10:02:46;;;;;;;3.95;0.90;;;;;;;24.19;36.57;92793.03;5048701;28;20080;-89
2022/04/26 10:05:15;;;;;;;5.07;1.27;;;;;;;23.49;34.82;92783.81;5049036;28;20061;-87
2022/04/26 10:07:47;;;;;;;4.43;1.23;;;;;;;23.48;34.39;92785.66;5049371;28;20507;-87
2022/04/26 10:10:15;;;;;;;7.05;1.58;;;;;;;23.23;37.35;92751.16;5049667;28;20108;-89
2022/04/26 10:13:31;;;;;;;2.67;1.10;;;;;;;23.89;35.41;92780.44;5048831;28;20048;-86
2022/04/26 10:15:32;;;;;;;3.22;0.90;;;;;;;22.59;36.17;92744.25;5048968;28;20045;-89
2022/04/26 10:17:59;;;;;;;8.18;1.60;;;;;;;23.07;36.09;92781.41;5049569;28;20144;-89
2022/04/26 10:20:48;;;;;;;2.38;1.00;;;;;;;23.42;35.73;92778.25;5049117;28;20171;-90
2022/04/26 10:23:18;;;;;;;2.58;0.93;;;;;;;23.09;37.23;92774.78;5048516;28;20151;-89
2022/04/26 10:26:28;;;;;;;7.63;1.98;;;;;;;22.76;35.58;92766.38;5048972;28;20498;-90
2022/04/26 10:28:59;;;;;;;2.53;1.13;;;;;;;22.32;36.50;92766.81;5048458;28;20411;-90
2022/04/26 10:31:38;;;;;;;2.58;1.20;;;;;;;21.49;36.73;92726.53;5048575;28;20041;-88
2022/04/26 10:34:31;;;;;;;4.20;1.20;;;;;;;21.68;37.66;92780.56;5049136;28;20055;-89
2022/04/26 10:37:03;;;;;;;3.10;1.48;;;;;;;21.45;38.62;92718.50;5048617;28;20041;-90
2022/04/26 10:39:51;;;;;;;5.07;1.65;;;;;;;21.05;38.07;92658.09;5048407;28;20057;-90
2022/04/26 10:42:35;;;;;;;3.70;1.02;;;;;;;21.72;37.11;92753.56;5051443;28;20396;-90
2022/04/26 10:45:16;;;;;;;4.05;1.77;;;;;;;21.18;37.68;92708.78;5052366;28;20040;-90
2022/04/26 10:48:45;;;;;;;;;;;;;;;;;;;;;
2022/04/26 10:51:37;;;;;;;2.55;0.90;;;;;;;21.97;36.97;92779.50;5048815;28;20061;-90
2022/04/26 10:54:08;;;;;;;4.22;1.20;;;;;;;21.44;36.87;92666.53;5050676;28;20503;-89
2022/04/26 10:56:35;;;;;;;3.88;1.00;;;;;;;22.18;36.78;92773.88;5051899;28;20057;-88
2022/04/26 10:59:23;;;;;;;6.28;2.17;;;;;;;21.69;34.81;92704.47;5052596;28;20087;-88
2022/04/26 11:01:50;;;;;;;5.15;1.45;;;;;;;22.36;35.76;92720.63;5052625;28;20057;-87
2022/04/26 11:04:18;;;;;;;2.38;1.00;;;;;;;22.13;34.70;92709.38;5052525;28;20052;-88
2022/04/26 11:06:45;;;;;;;5.95;0.98;;;;;;;22.57;37.26;92669.75;5051427;28;20052;-88
2022/04/26 11:09:15;;;;;;;3.70;1.23;;;;;;;23.76;35.65;92753.25;5052375;28;20049;-88
2022/04/26 11:11:50;;;;;;;2.25;0.90;;;;;;;24.18;34.26;92754.75;5051697;28;20488;-89
2022/04/26 11:14:22;;;;;;;3.43;1.30;;;;;;;24.15;33.50;92714.16;5052238;28;20052;-90
2022/04/26 11:16:57;;;;;;;2.92;0.95;;;;;;;24.46;33.03;92717.72;5051943;28;20286;-89
2022/04/26 11:19:29;;;;;;;5.33;0.90;;;;;;;24.87;33.84;92742.78;5052233;28;20098;-90
2022/04/26 11:22:04;;;;;;;3.60;1.10;;;;;;;24.74;30.82;92752.34;5052156;28;20384;-90
2022/04/26 11:30:11;;;;;;;4.45;1.25;;;;;;;23.80;34.14;92753.41;5051707;28;20047;-90
2022/04/26 11:32:42;;;;;;;3.03;0.93;;;;;;;23.22;34.42;92714.75;5052613;28;20049;-90
2022/04/26 11:35:11;;;;;;;2.85;1.00;;;;;;;22.91;35.31;92695.34;5052518;28;20396;-91
2022/04/26 11:37:44;;;;;;;3.70;1.05;;;;;;;23.16;33.88;92750.03;5052509;28;20055;-89
2022/04/26 11:40:12;;;;;;;3.00;0.63;;;;;;;23.17;32.69;92744.50;5052432;28;20108;-89
2022/04/26 11:42:39;;;;;;;3.10;0.70;;;;;;;23.07;32.06;92685.28;5052159;28;20476;-89
2022/04/26 11:45:07;;;;;;;5.03;1.10;;;;;;;22.98;33.02;92746.50;5052364;28;20041;-88
2022/04/26 11:47:44;;;;;;;3.15;1.08;;;;;;;23.53;34.61;92737.59;5051748;28;20507;-88
2022/04/26 11:50:16;;;;;;;2.50;1.05;;;;;;;23.12;32.96;92686.97;5067682;28;20122;-90
2022/04/26 11:52:44;;;;;;;2.13;0.70;;;;;;;22.81;33.16;92693.75;5053341;28;20044;-90
2022/04/26 11:55:31;;;;;;;4.18;1.17;;;;;;;22.95;32.84;92604.63;5051015;28;20164;-91
2022/04/26 11:58:09;;;;;;;4.85;0.98;;;;;;;23.90;32.08;92669.22;5051214;28;20041;-91
2022/04/26 12:00:36;;;;;;;6.25;1.25;;;;;;;23.89;32.42;92639.56;5051266;28;20400;-92
2022/04/26 12:03:09;;;;;;;5.28;1.50;;;;;;;24.45;32.19;92664.47;5050987;28;20048;-89
2022/04/26 12:05:40;;;;;;;2.22;0.70;;;;;;;24.96;29.62;92650.81;5050380;28;20060;-88
2022/04/26 12:08:10;;;;;;;2.47;0.80;;;;;;;25.41;29.77;92662.69;5050863;28;20057;-90
2022/04/26 12:10:40;;;;;;;6.45;1.15;;;;;;;26.21;28.43;92705.16;5051296;28;20032;-91
2022/04/26 12:13:07;;;;;;;2.70;0.95;;;;;;;25.98;28.13;92642.31;5051925;28;20094;-90
2022/04/26 12:15:37;;;;;;;3.78;0.90;;;;;;;26.36;28.96;92651.19;5051596;28;20526;-90
2022/04/26 12:18:15;;;;;;;2.95;1.05;;;;;;;26.27;27.62;92622.28;5051624;28;20136;-90
2022/04/26 12:21:02;;;;;;;1.77;0.65;;;;;;;27.11;27.28;92671.75;5050369;28;20495;-91
2022/04/26 12:23:29;;;;;;;4.97;0.90;;;;;;;27.08;25.44;92615.16;5050660;28;20049;-92
2022/04/26 12:25:57;;;;;;;3.30;0.63;;;;;;;27.32;25.03;92609.13;5047835;28;20047;-91
2022/04/26 12:28:25;;;;;;;1.55;0.65;;;;;;;27.31;24.91;92583.84;5042716;28;20047;-91
2022/04/26 12:30:52;;;;;;;3.70;1.25;;;;;;;27.17;23.85;92680.97;5050540;28;20081;-90
2022/04/26 12:33:32;;;;;;;2.22;0.77;;;;;;;25.41;24.97;92594.34;5050335;28;20048;-90
2022/04/26 12:36:03;;;;;;;1.58;0.55;;;;;;;25.08;24.56;92673.78;5049887;28;20044;-90
2022/04/26 12:38:30;;;;;;;1.65;0.30;;;;;;;23.91;23.24;92596.53;5050005;28;20045;-90
2022/04/26 12:41:05;;;;;;;1.05;0.30;;;;;;;23.04;23.65;92557.50;5046771;28;20041;-90
2022/04/26 12:43:32;;;;;;;2.60;0.60;;;;;;;24.48;25.15;92682.22;5049025;28;20154;-89
2022/04/26 12:46:02;;;;;;;0.75;0.40;;;;;;;25.14;26.74;92672.56;5050182;28;20491;-90
2022/04/26 12:51:20;;;;;;;1.98;0.52;;;;;;;25.27;24.80;92670.78;5050288;28;20059;-90
2022/04/26 12:53:48;;;;;;;2.17;0.65;;;;;;;24.76;23.78;92618.84;5050081;28;20041;-89
2022/04/26 12:56:15;;;;;;;1.90;0.40;;;;;;;25.26;25.25;92673.75;5049897;28;20045;-89
2022/04/26 12:58:44;;;;;;;4.70;0.50;;;;;;;24.94;25.05;92608.31;5050230;28;20051;-87
2022/04/26 13:01:11;;;;;;;2.25;0.85;;;;;;;25.24;26.04;92610.22;5050190;28;20063;-88
2022/04/26 13:03:41;;;;;;;2.53;0.60;;;;;;;25.85;26.72;92649.34;5049852;28;20047;-88
2022/04/26 13:06:10;;;;;;;1.27;0.57;;;;;;;26.10;25.99;92662.63;5049834;28;20056;-89
2022/04/26 13:08:38;;;;;;;2.63;0.80;;;;;;;26.20;25.64;92643.06;5050101;28;20048;-89
2022/04/26 13:11:05;;;;;;;2.80;0.60;;;;;;;26.20;26.37;92634.41;5047353;28;20057;-90
2022/04/26 13:13:33;;;;;;;0.93;0.45;;;;;;;26.34;24.16;92652.59;5030083;28;20132;-88
2022/04/26 13:16:00;;;;;;;3.47;0.70;;;;;;;25.93;24.21;92604.88;5029984;28;20046;-89
2022/04/26 13:18:28;;;;;;;4.70;0.85;;;;;;;24.79;24.47;92591.19;5030032;28;20068;-90
2022/04/26 13:20:57;;;;;;;3.63;0.90;;;;;;;24.39;28.85;92632.34;5037106;28;20037;-91
2022/04/26 13:23:24;;;;;;;4.35;0.70;;;;;;;24.30;30.26;92639.44;5050092;28;20136;-91
2022/04/26 13:25:55;;;;;;;1.92;0.80;;;;;;;23.86;31.20;92579.09;5049153;28;20052;-92
2022/04/26 13:28:22;;;;;;;2.70;1.10;;;;;;;22.54;34.33;92655.41;5049277;28;20424;-90
2022/04/26 13:30:49;;;;;;;1.70;0.82;;;;;;;22.72;34.05;92658.88;5048832;28;20045;-89
2022/04/26 13:33:16;;;;;;;2.15;0.90;;;;;;;22.24;34.85;92613.13;5049120;28;20095;-90
2022/04/26 13:35:43;;;;;;;4.40;1.20;;;;;;;22.05;35.10;92624.53;5049194;28;20488;-88
2022/04/26 13:38:13;;;;;;;3.78;0.52;;;;;;;22.11;35.63;92680.91;5049801;28;20041;-91
2022/04/26 13:40:40;;;;;;;1.85;0.70;;;;;;;21.22;37.55;92678.44;5050166;28;20049;-89
2022/04/26 13:43:09;;;;;;;1.77;0.80;;;;;;;20.30;39.46;92661.34;5048065;28;20036;-91
2022/04/26 13:45:36;;;;;;;3.30;0.75;;;;;;;20.73;38.71;92625.75;5049071;28;20056;-90
2022/04/26 13:48:09;;;;;;;2.10;0.70;;;;;;;21.07;37.77;92659.34;5048599;28;20377;-90
2022/04/26 13:50:39;;;;;;;3.70;1.52;;;;;;;20.91;40.65;92626.75;5048728;28;20072;-90
2022/04/26 13:53:06;;;;;;;3.47;0.80;;;;;;;20.87;39.17;92644.81;5048742;28;20489;-89
2022/04/26 13:55:38;;;;;;;2.60;0.68;;;;;;;20.65;38.99;92588.78;5047759;28;20049;-90
2022/04/26 13:58:08;;;;;;;1.70;0.90;;;;;;;19.72;40.20;92497.16;5049349;28;20049;-89
2022/04/26 14:00:36;;;;;;;2.67;0.95;;;;;;;20.74;40.98;92620.22;5048847;28;20041;-89
2022/04/26 14:03:04;;;;;;;3.97;1.17;;;;;;;20.51;39.68;92588.75;5049077;28;20055;-87
2022/04/26 14:05:34;;;;;;;1.70;0.73;;;;;;;20.63;40.91;92595.34;5047004;28;20045;-88
2022/04/26 14:08:01;;;;;;;1.95;0.90;;;;;;;20.08;40.71;92639.25;5048535;28;20115;-90
2022/04/26 14:10:28;;;;;;;2.42;0.60;;;;;;;19.73;42.85;92591.75;5058556;28;20048;-86
2022/04/26 14:12:57;;;;;;;2.30;0.68;;;;;;;19.49;44.50;92595.19;5057269;28;20421;-88
2022/04/26 14:23:37;;;;;;;3.47;0.93;;;;;;;19.24;49.59;92672.56;5051554;28;20388;-87
2022/04/26 14:26:05;;;;;;;3.17;1.02;;;;;;;18.93;51.08;92697.03;5051641;28;20071;-87
2022/04/26 14:28:33;;;;;;;4.25;1.42;;;;;;;18.64;50.49;92704.81;5051672;28;20087;-87
2022/04/26 14:31:00;;;;;;;2.75;1.02;;;;;;;18.41;51.25;92731.25;5051645;28;20041;-88
2022/04/26 14:33:27;;;;;;;2.70;1.33;;;;;;;17.88;53.11;92627.84;5051480;28;20044;-89
2022/04/26 14:35:54;;;;;;;8.77;1.45;;;;;;;18.47;54.62;92708.56;5051424;28;20045;-92
2022/04/26 14:38:20;;;;;;;3.08;1.20;;;;;;;18.45;56.34;92715.88;5051061;28;20534;-87
2022/04/26 14:40:48;;;;;;;2.60;1.25;;;;;;;17.65;58.63;92670.81;5052073;28;20377;-86
2022/04/26 14:43:14;;;;;;;2.60;1.20;;;;;;;18.25;59.50;92694.19;5052032;28;20040;-85
2022/04/26 14:45:46;;;;;;;5.90;1.30;;;;;;;18.40;58.97;92721.91;5051179;28;20044;-86
2022/04/26 14:48:14;;;;;;;3.13;1.17;;;;;;;18.35;58.92;92715.94;5049403;28;20551;-86
2022/04/26 14:50:41;;;;;;;3.10;1.10;;;;;;;17.99;59.02;92732.47;5051363;28;20041;-87
2022/04/26 14:53:08;;;;;;;2.55;1.10;;;;;;;17.99;60.72;92741.06;5047717;28;20045;-87
2022/04/26 14:55:36;;;;;;;5.18;1.35;;;;;;;17.77;58.66;92738.78;5048839;28;20049;-86
2022/04/26 14:58:03;;;;;;;2.05;0.98;;;;;;;17.25;59.81;92700.03;5051068;28;20037;-88
2022/04/26 15:00:31;;;;;;;1.63;0.90;;;;;;;17.29;60.51;92765.94;5051051;28;20439;-90
2022/04/26 15:02:59;;;;;;;2.53;1.20;;;;;;;16.99;60.70;92707.06;5051530;28;20044;-90
2022/04/26 15:05:29;;;;;;;2.95;1.42;;;;;;;16.09;61.54;92625.16;5051543;28;20048;-89
2022/04/26 15:10:40;;;;;;;2.58;0.98;;;;;;;16.49;59.29;92762.81;5049210;28;20047;-87
2022/04/26 15:18:37;;;;;;;1.85;0.68;;;;;;;16.49;59.17;92780.16;5050310;28;20462;-88
2022/04/26 15:21:08;;;;;;;0.98;0.50;;;;;;;16.67;58.75;92784.84;5050669;28;20092;-86
2022/04/26 15:23:36;;;;;;;2.30;0.70;;;;;;;16.15;57.07;92703.63;5050419;28;20047;-86
2022/04/26 15:26:06;;;;;;;1.45;0.73;;;;;;;15.96;58.78;92731.88;5050551;28;20131;-86
2022/04/26 15:28:36;;;;;;;1.45;0.80;;;;;;;15.77;61.84;92743.41;5050478;28;20045;-88
2022/04/26 15:31:03;;;;;;;1.60;0.88;;;;;;;15.73;65.52;92807.09;5051700;28;20052;-85
2022/04/26 15:33:30;;;;;;;2.58;0.60;;;;;;;15.36;67.46;92793.16;5051054;28;20041;-86
2022/04/26 15:35:58;;;;;;;1.30;0.68;;;;;;;14.45;69.62;92705.09;5038350;28;20044;-90
2022/04/26 15:38:27;;;;;;;2.08;0.80;;;;;;;14.48;72.30;92743.34;5048471;28;20378;-88
2022/04/26 15:40:55;;;;;;;2.03;0.77;;;;;;;15.00;72.75;92807.66;5050126;28;20423;-86
2022/04/26 15:43:22;;;;;;;1.30;0.70;;;;;;;14.15;74.84;92714.09;5050080;28;20119;-88
2022/04/26 15:45:48;;;;;;;1.48;1.10;;;;;;;14.13;76.30;92726.50;5050277;28;20041;-86
2022/04/26 15:48:15;;;;;;;3.20;0.98;;;;;;;14.19;76.84;92745.38;5049841;28;20044;-86
2022/04/26 15:50:42;;;;;;;7.28;2.65;;;;;;;14.43;78.19;92811.28;5050008;28;20399;-87
2022/04/26 15:53:10;;;;;;;9.13;3.47;;;;;;;14.37;79.13;92806.28;5050096;28;20048;-87
2022/04/26 15:55:38;;;;;;;4.68;1.90;;;;;;;14.29;79.34;92795.38;5050001;28;20041;-85
2022/04/26 15:58:05;;;;;;;2.53;1.40;;;;;;;13.95;76.57;92728.38;5050371;28;20057;-86
2022/04/26 16:00:32;;;;;;;5.65;2.95;;;;;;;14.36;74.48;92778.88;5049669;28;20087;-86